Results By State


Marshman® Triathlon Presented by Kinetic PT

Race Date: Sunday September 20, 2009
Description: 1/4 Mile Swim~12.5 Mile Bike~2 Mile Run
Race Category: Triathlon
# Entrants in State: 28

Choose:
 State
Place
Overall
Place
NameCityStateRace AgeGenderDivisionTimeBib#
View 1 40 Scanlon, Tiffany Baltimore MD 35 F F35-39 1:04:57 583
View 2 136 Wolven, Callie Baltimore MD 33 F F30-34 1:13:13 491
View 3 170 Witmer, Tara Pasadena MD 28 F F25-29 1:14:43 478
View 4 175 Smith, Stephen Laurel MD 36 M M35-39 1:14:50 149
View 5 199 Hartley, Mike Abingdon MD 28 M M25-29 1:15:42 61
View 6 203 Muench, Theo Jessup MD 30 M M30-34 1:15:59 771
View 7 205 Jester, Michelle Hunt Valley MD 23 F F20-24 1:16:07 437
View 8 241 Howells, Mark Sparks MD 31 M Clydesdale 1:17:57 371
View 9 252 Karceski, Rachel Baltimore MD 33 F F30-34 1:18:45 490
View 10 268 Weaver, Susan Towson MD 37 F F35-39 1:19:45 560
View 11 297 Miller, Nicole Towson MD 32 F F30-34 1:21:07 501
View 12 306 Thomas, Cleo Owings Mills MD 24 F F20-24 1:21:35 427
View 13 386 Voss, James Baltimore MD 47 M Clydesdale 1:26:26 386
View 14 398 Dobratz, Nola Baltimore MD 31 F F30-34 1:27:14 725
View 15 414 Hartley, Renee Abindon MD 27 F F25-29 1:28:00 458
View 16 430 Jones, Kiki Chestertown MD 40 F Athena 1:29:32 724
View 17 463 Smith, Molly Laurel MD 38 F F35-39 1:31:01 556
View 18 535 French, Scott Towson MD 39 M Clydesdale 1:38:18 384
View 19 542 Scott, Bill Accokeek MD 37 M M35-39 1:39:05 134
View 20 550 Goetze, Nicole Abingdon MD 24 F F20-24 1:39:50 435
View 21 584 Kammar, Craig Towson MD 44 M M40-44 1:43:16 248
View 22 586 Grier, Ellen Baltimore MD 24 F F20-24 1:43:23 431
View 23 632 O'connor, Frances Baltimore MD 31 F F30-34 1:55:08 511
View 24 639 Kiser, Mary Freeland MD 53 F F50-54 1:59:45 695
View 25 646 Butera, Rachel Chesapeake City MD 24 F Athena 2:04:51 746
View 26 647 Kiser, Bryana Freeland MD 19 F F0-19 2:05:45 413
View 27 648 Kiser, Heidi Freeland MD 24 F F20-24 2:05:45 428
View 28 658 Murphy, Sean Baltimore MD 25 M M25-29 79